Aérodrome :
LOGIN :

S'inscrire | Disclaimer

   EN    FR    IT 

 










Légende :    VFR   VFR Marginal   IFR   IFR Intensif   IFR Très Intensif
Visi : 
Plafond : 
>= 8 km
>= 3000ft
5 à 8 km
1000 à 3000 ft
1500m à 5 km
500 à 1000 ft
800 à 1500m
200 à 500 ft
< 800m
< 200 ft
Symboles :   Orages  Brouillard  Fortes neiges  Fortes précipitations  Vent > 20 kt
SIGMETs :   Divers  Orages  Givrage  Turbulence  Onde Orograph.  Cendres Volcan.







- Altitude de l'aérodrome : 52 ft
- Code IATA : RNN


EKRN - Bornholm Ronne

DERNIER METAR :
  • 190750Z 24008KT 210V270 7000 SCT025 BKN040 04/03 Q1008

METARs EXPIRÉS :
  • 190720Z 24004KT 190V280 7000 BKN035 BKN170 04/03 Q1008
  • 190650Z 28003KT 6000 SCT041 BKN170 04/02 Q1008
  • 190620Z AUTO VRB02KT 5000 BKN150/// 02/02 Q1008
  • 190550Z AUTO 12003KT 5000 SCT180/// 02/01 Q1008
  • 190520Z AUTO 20001KT 6000 BKN190/// 03/02 Q1008

TAF TAF EKRN
Valide du 19 à 06h jusqu'au 19 à 15h UTC


190521Z 1906/1915 22008KT 6000 SCT030
TEMPO 1906/1908 4000 BR
BECMG 1908/1910 4000 RADZ BR SCT008 BKN012
BECMG 1910/1912 25018KT 9999 NSW BKN020
TEMPO 1912/1915 25020G30KT SHRA BKN008 SCT020CB
Pas de NOTAMs connus pour ce terrain.



MET'MAP, la Météo Aéronautique d'un coup d'oeil ! - Copyright ORBIFLY Décembre 2007 - Disclaimer

ORBIFLY MET'MAP TEAM :

Programmation & Développement : Alexandra Zaïnal
Conception & Développement : Baudouin d'Aumeries
Co-Programmation & Développement : Marc-Olivier Méhu
Soutien technique & logistique : Manuel Goepfert

Contact : metmap@orbifly.com




SOURCES & CREDITS :

   NOAA